Time;durP1;ratioP1;P1;durP2;ratioP2;P2;SDS_P1;SDS_P2;PMS_P1;PMS_P2;Temp;Humidity;BMP_temperature;BMP_pressure;BME280_temperature;BME280_humidity;BME280_pressure;Samples;Min_cycle;Max_cycle;Signal;HPM_P1;HPM_P2
2022/06/14 00:00:54;;;;;;;36.57;34.07;;;;;;;16.20;62.80;97261.31;5072261;28;20590;-68
2022/06/14 00:03:29;;;;;;;36.17;33.97;;;;;;;16.11;63.28;97265.44;5072289;28;20238;-67
2022/06/14 00:05:57;;;;;;;32.20;30.13;;;;;;;16.07;63.38;97268.84;5070104;28;20264;-67
2022/06/14 00:08:25;;;;;;;34.60;32.23;;;;;;;15.91;63.97;97267.09;5071524;28;20197;-68
2022/06/14 00:10:51;;;;;;;31.17;29.17;;;;;;;15.90;63.90;97266.28;5071986;28;20216;-68
2022/06/14 00:13:17;;;;;;;29.27;27.07;;;;;;;15.86;64.18;97262.56;5071727;28;20193;-69
2022/06/14 00:15:45;;;;;;;31.90;29.87;;;;;;;15.90;64.18;97262.84;5071823;28;20181;-68
2022/06/14 00:18:14;;;;;;;33.17;30.73;;;;;;;15.85;64.17;97266.25;5072217;28;20193;-68
2022/06/14 00:20:41;;;;;;;32.90;30.67;;;;;;;15.78;64.46;97268.25;5054373;28;20185;-68
2022/06/14 00:23:06;;;;;;;39.93;37.60;;;;;;;15.80;64.08;97258.25;5071232;28;20661;-68
2022/06/14 00:25:39;;;;;;;49.60;46.77;;;;;;;15.82;64.39;97256.19;5073103;28;20185;-68
2022/06/14 00:28:06;;;;;;;59.50;56.10;;;;;;;15.74;64.84;97252.13;5075751;28;20188;-68
2022/06/14 00:30:32;;;;;;;73.20;68.90;;;;;;;15.86;64.43;97253.81;5075097;28;20174;-68
2022/06/14 00:32:58;;;;;;;87.53;82.60;;;;;;;15.75;64.87;97259.00;5075454;28;20205;-68
2022/06/14 00:35:24;;;;;;;103.70;97.80;;;;;;;15.74;64.98;97256.59;5074714;28;20242;-69
2022/06/14 00:37:49;;;;;;;116.00;109.60;;;;;;;15.62;65.29;97248.00;5074307;28;20221;-68
2022/06/14 00:40:19;;;;;;;121.57;114.83;;;;;;;15.63;65.55;97249.59;5075844;28;20170;-68
2022/06/14 00:42:45;;;;;;;117.30;110.80;;;;;;;15.55;65.80;97242.91;5074189;28;20197;-68
2022/06/14 00:45:11;;;;;;;98.80;93.40;;;;;;;15.64;65.50;97244.09;5075319;28;20228;-68
2022/06/14 00:47:45;;;;;;;77.40;72.57;;;;;;;15.44;66.38;97240.34;5063052;28;20217;-69
2022/06/14 00:50:28;;;;;;;68.63;64.67;;;;;;;15.44;66.20;97248.28;5074558;28;20529;-68
2022/06/14 00:53:00;;;;;;;69.53;65.47;;;;;;;15.56;65.93;97246.34;5075250;28;20193;-68
2022/06/14 00:55:40;;;;;;;76.60;72.33;;;;;;;15.48;65.89;97249.41;5075404;28;20630;-68
2022/06/14 00:58:23;;;;;;;93.73;88.43;;;;;;;15.41;65.87;97244.28;5074109;28;20191;-68
2022/06/14 01:00:59;;;;;;;92.17;86.90;;;;;;;15.40;66.21;97240.06;5074042;28;20169;-68
2022/06/14 01:03:32;;;;;;;117.27;110.60;;;;;;;15.48;65.60;97237.00;5071214;28;20201;-68
2022/06/14 01:06:11;;;;;;;130.47;123.33;;;;;;;15.43;65.61;97239.56;5057384;28;20205;-68
2022/06/14 01:08:46;;;;;;;123.33;116.47;;;;;;;15.31;66.07;97237.06;5074893;28;20180;-68
2022/06/14 01:11:20;;;;;;;130.97;123.50;;;;;;;15.40;65.69;97235.56;5074782;28;20208;-68
2022/06/14 01:13:46;;;;;;;140.80;133.20;;;;;;;15.37;65.79;97237.91;5074895;28;20270;-68
2022/06/14 01:16:12;;;;;;;118.83;112.30;;;;;;;15.16;66.57;97236.03;5074759;28;20223;-68
2022/06/14 01:18:38;;;;;;;92.80;87.37;;;;;;;15.18;66.71;97233.97;5074566;28;20181;-68
2022/06/14 01:21:04;;;;;;;63.57;59.67;;;;;;;15.17;66.92;97230.50;5074591;28;20192;-68
2022/06/14 01:23:30;;;;;;;55.20;51.87;;;;;;;15.17;67.21;97225.22;5074384;28;20177;-68
2022/06/14 01:26:12;;;;;;;45.17;42.37;;;;;;;15.25;66.68;97226.66;5074441;28;20173;-68
2022/06/14 01:28:41;;;;;;;34.93;32.37;;;;;;;15.15;67.30;97232.63;5074804;28;20181;-68
2022/06/14 01:31:07;;;;;;;33.83;31.50;;;;;;;15.18;67.41;97236.59;5074587;28;20247;-68
2022/06/14 01:33:41;;;;;;;40.80;38.17;;;;;;;15.09;67.79;97241.50;5074238;28;20319;-68
2022/06/14 01:36:11;;;;;;;56.27;53.07;;;;;;;15.09;67.89;97244.16;5073885;28;20692;-68
2022/06/14 01:38:38;;;;;;;63.53;59.97;;;;;;;14.90;68.86;97240.97;5073961;28;20243;-68
2022/06/14 01:41:04;;;;;;;63.00;59.03;;;;;;;14.87;69.42;97240.69;5073973;28;20715;-68
2022/06/14 01:43:51;;;;;;;68.93;64.80;;;;;;;14.76;69.92;97237.09;5074352;28;20201;-68
2022/06/14 01:46:31;;;;;;;70.33;66.23;;;;;;;15.12;68.59;97232.28;5064715;28;20199;-68
2022/06/14 01:52:12;;;;;;;45.60;42.37;;;;;;;14.98;68.51;97240.59;5074146;28;20200;-68
2022/06/14 01:55:02;;;;;;;40.07;37.30;;;;;;;15.07;68.38;97242.78;5073959;28;20173;-67
2022/06/14 01:57:46;;;;;;;35.17;32.87;;;;;;;14.80;68.90;97242.69;5073900;28;20650;-67
2022/06/14 02:00:17;;;;;;;36.73;34.13;;;;;;;14.90;68.73;97240.19;5074180;28;20587;-67
2022/06/14 02:02:50;;;;;;;41.03;38.13;;;;;;;14.83;68.69;97239.53;5073957;28;20189;-67
2022/06/14 02:05:28;;;;;;;39.03;36.20;;;;;;;14.84;68.92;97241.16;5070797;28;20177;-67
2022/06/14 02:07:56;;;;;;;41.83;39.10;;;;;;;14.82;68.70;97240.59;5074162;28;20177;-67
2022/06/14 02:10:43;;;;;;;44.23;41.53;;;;;;;14.94;68.45;97243.91;5055352;28;20185;-67
2022/06/14 02:13:17;;;;;;;50.33;47.23;;;;;;;15.09;67.71;97238.88;5073499;28;20546;-67
2022/06/14 02:15:55;;;;;;;55.00;51.70;;;;;;;14.87;68.51;97240.69;5073521;28;20188;-67
2022/06/14 02:18:39;;;;;;;60.87;57.20;;;;;;;14.64;69.37;97233.75;5069368;28;20207;-67
2022/06/14 02:21:04;;;;;;;65.70;61.80;;;;;;;14.68;69.50;97234.84;5073568;28;20209;-67
2022/06/14 02:23:35;;;;;;;56.50;52.90;;;;;;;14.71;69.32;97226.44;5073824;28;20210;-67
2022/06/14 02:26:29;;;;;;;39.80;37.17;;;;;;;14.52;70.41;97227.75;5073654;28;20223;-67
2022/06/14 02:29:02;;;;;;;32.67;30.57;;;;;;;14.68;70.36;97223.50;5068291;28;20651;-67
2022/06/14 02:32:05;;;;;;;153.80;145.23;;;;;;;14.81;70.09;97221.31;5073817;28;20591;-68
2022/06/14 02:34:47;;;;;;;193.73;182.50;;;;;;;14.73;70.88;97231.47;5034643;28;20239;-67
2022/06/14 02:37:18;;;;;;;68.03;63.70;;;;;;;14.48;71.97;97222.16;5063818;28;20185;-67
2022/06/14 02:39:55;;;;;;;32.43;30.13;;;;;;;14.39;73.13;97228.06;5073504;28;20266;-67
2022/06/14 02:42:29;;;;;;;56.37;52.77;;;;;;;14.49;73.06;97220.28;5055122;28;20184;-67
2022/06/14 02:44:59;;;;;;;68.97;64.90;;;;;;;14.53;72.70;97216.16;5071730;28;20190;-67
2022/06/14 02:47:38;;;;;;;48.60;45.63;;;;;;;14.55;73.09;97220.13;5073053;28;20236;-68
2022/06/14 02:50:13;;;;;;;46.23;43.40;;;;;;;14.36;73.99;97216.13;5072493;28;20181;-68
2022/06/14 02:53:08;;;;;;;30.63;28.63;;;;;;;14.33;74.44;97221.88;5073174;28;20279;-68
2022/06/14 02:55:43;;;;;;;44.03;41.20;;;;;;;14.49;73.83;97220.28;5072945;28;20181;-69
2022/06/14 02:58:32;;;;;;;104.00;98.17;;;;;;;14.29;74.73;97222.59;5072495;28;20169;-68
2022/06/14 03:01:00;;;;;;;89.17;83.87;;;;;;;14.25;75.03;97218.84;5073037;28;20173;-68
2022/06/14 03:03:38;;;;;;;76.37;71.73;;;;;;;14.21;75.27;97220.38;5072021;28;20709;-68
2022/06/14 03:06:13;;;;;;;92.07;86.27;;;;;;;14.32;74.82;97220.25;5072563;28;20193;-68
2022/06/14 03:08:50;;;;;;;86.57;81.57;;;;;;;14.30;75.02;97213.66;5073103;28;20173;-68
2022/06/14 03:11:27;;;;;;;94.50;89.27;;;;;;;14.20;75.35;97222.19;5072603;28;20213;-68
2022/06/14 03:14:15;;;;;;;81.13;76.60;;;;;;;14.36;74.12;97221.41;5072811;28;20295;-67
2022/06/14 03:16:58;;;;;;;79.60;74.80;;;;;;;14.22;74.16;97227.22;5072814;28;20260;-67
2022/06/14 03:19:43;;;;;;;103.93;98.10;;;;;;;14.26;72.89;97223.88;5072520;28;20297;-68
2022/06/14 03:22:26;;;;;;;105.10;98.93;;;;;;;14.30;72.47;97218.91;5072774;28;20169;-68
2022/06/14 03:25:23;;;;;;;126.20;119.07;;;;;;;14.27;73.47;97230.72;5072664;28;20227;-68
2022/06/14 03:27:57;;;;;;;100.43;94.83;;;;;;;14.04;75.63;97236.16;5027565;28;20189;-67
2022/06/14 03:30:37;;;;;;;83.63;78.57;;;;;;;13.87;76.29;97228.22;5072439;28;20696;-68
2022/06/14 03:33:23;;;;;;;106.37;100.27;;;;;;;13.88;77.26;97226.34;5072390;28;20205;-69
2022/06/14 03:35:52;;;;;;;66.50;62.47;;;;;;;13.95;77.87;97224.38;5072375;28;20585;-68
2022/06/14 03:38:21;;;;;;;40.93;37.77;;;;;;;14.04;77.99;97222.97;5072478;28;20224;-68
2022/06/14 03:40:47;;;;;;;36.47;33.67;;;;;;;13.99;78.82;97220.22;5072224;28;20230;-68
2022/06/14 03:43:13;;;;;;;30.17;27.63;;;;;;;14.18;78.64;97226.91;5071573;28;20288;-68
2022/06/14 03:45:51;;;;;;;31.00;28.10;;;;;;;14.19;78.96;97233.78;5052944;28;20200;-68
2022/06/14 03:48:17;;;;;;;30.07;27.50;;;;;;;13.98;80.48;97226.56;5072565;28;20180;-68
2022/06/14 03:51:20;;;;;;;30.83;28.07;;;;;;;14.20;79.56;97224.84;5072144;28;20189;-68
2022/06/14 03:53:57;;;;;;;49.23;46.00;;;;;;;14.29;79.41;97228.66;5057684;28;20212;-68
2022/06/14 03:56:48;;;;;;;138.73;130.43;;;;;;;14.35;79.31;97232.19;5072207;28;20274;-68
2022/06/14 03:59:48;;;;;;;91.83;86.43;;;;;;;14.44;78.49;97223.66;5072274;28;20244;-68
2022/06/14 04:02:22;;;;;;;66.77;62.67;;;;;;;14.85;76.72;97224.28;5075905;28;20707;-69
2022/06/14 04:05:02;;;;;;;170.80;161.37;;;;;;;14.76;77.30;97223.91;5060805;28;20184;-68
2022/06/14 04:07:41;;;;;;;126.63;119.73;;;;;;;15.11;76.30;97226.22;5075900;28;20193;-68
2022/06/14 04:10:37;;;;;;;118.50;111.93;;;;;;;15.52;74.21;97224.91;5075430;28;20173;-68
2022/06/14 04:13:31;;;;;;;126.67;119.53;;;;;;;15.40;73.69;97224.19;5075892;28;20237;-68
2022/06/14 04:16:11;;;;;;;168.33;159.00;;;;;;;15.68;72.38;97213.47;5073058;28;20189;-68
2022/06/14 04:18:58;;;;;;;132.93;125.10;;;;;;;15.35;74.26;97219.66;5075667;28;20173;-68
2022/06/14 04:21:50;;;;;;;79.50;74.73;;;;;;;15.71;72.21;97217.47;5075308;28;20172;-68
2022/06/14 04:24:25;;;;;;;71.73;67.37;;;;;;;15.83;72.40;97218.09;5075420;28;20261;-68
2022/06/14 04:27:20;;;;;;;72.27;67.97;;;;;;;15.68;71.92;97223.22;5075899;28;20671;-67
2022/06/14 04:30:03;;;;;;;73.53;69.20;;;;;;;16.20;70.45;97223.50;5075722;28;20197;-68
2022/06/14 04:32:53;;;;;;;76.80;71.85;;;;;;;16.72;69.22;97222.88;5057425;28;20291;-68
2022/06/14 04:35:28;;;;;;;66.80;62.77;;;;;;;17.19;66.78;97221.03;5075066;28;20258;-68
2022/06/14 04:38:30;;;;;;;71.17;67.00;;;;;;;16.78;67.70;97224.47;5056589;28;20239;-68
2022/06/14 04:41:22;;;;;;;224.77;212.33;;;;;;;16.73;68.46;97222.59;5043313;28;20201;-68
2022/06/14 04:44:22;;;;;;;259.55;245.35;;;;;;;16.75;68.24;97225.00;5073426;28;20197;-68
2022/06/14 04:46:55;;;;;;;330.65;312.25;;;;;;;16.90;67.20;97223.25;5029500;28;20295;-68
2022/06/14 04:49:31;;;;;;;272.98;257.60;;;;;;;17.52;65.22;97222.50;5075188;28;20265;-68
2022/06/14 04:52:09;;;;;;;190.40;179.82;;;;;;;17.53;64.63;97215.34;5075033;28;20225;-67
2022/06/14 04:54:40;;;;;;;131.63;124.30;;;;;;;17.59;65.07;97231.00;5074847;28;20197;-68
2022/06/14 04:57:22;;;;;;;108.55;102.40;;;;;;;17.11;66.87;97226.78;5075697;28;20227;-68
2022/06/14 04:59:55;;;;;;;103.75;97.72;;;;;;;17.79;64.93;97225.78;5075218;28;20238;-68
2022/06/14 05:02:27;;;;;;;164.75;155.50;;;;;;;18.17;63.47;97227.16;5074180;28;20185;-68
2022/06/14 05:05:01;;;;;;;61.67;58.13;;;;;;;19.04;60.61;97222.66;5075216;28;20181;-68
2022/06/14 05:07:51;;;;;;;47.35;44.42;;;;;;;18.17;63.53;97219.22;5074974;28;20285;-68
2022/06/14 05:10:23;;;;;;;48.55;45.75;;;;;;;18.44;63.69;97218.19;5060780;28;20185;-68
2022/06/14 05:12:59;;;;;;;40.30;37.80;;;;;;;18.81;61.75;97213.41;5074776;28;20204;-68
2022/06/14 05:15:39;;;;;;;38.35;36.20;;;;;;;19.11;61.19;97217.84;5074816;28;20180;-68
2022/06/14 05:18:15;;;;;;;102.82;96.97;;;;;;;19.33;60.32;97207.69;5075003;28;20223;-68
2022/06/14 05:20:54;;;;;;;181.70;171.50;;;;;;;19.70;58.90;97209.13;5074483;28;20170;-67
2022/06/14 05:23:37;;;;;;;252.75;238.27;;;;;;;19.50;59.82;97212.69;5074234;28;20362;-68
2022/06/14 05:26:14;;;;;;;252.55;238.82;;;;;;;19.02;61.70;97220.25;5074081;28;20545;-68
2022/06/14 05:28:51;;;;;;;126.60;119.63;;;;;;;19.10;61.31;97218.91;5074220;28;20532;-68
2022/06/14 05:31:39;;;;;;;130.25;123.35;;;;;;;18.71;62.05;97220.59;5074097;28;20294;-68
2022/06/14 05:34:20;;;;;;;215.63;204.00;;;;;;;18.14;64.18;97224.25;5027188;28;20206;-68
2022/06/14 05:36:59;;;;;;;163.43;154.68;;;;;;;18.65;62.96;97223.25;5074018;28;20185;-69
2022/06/14 05:39:34;;;;;;;245.77;231.85;;;;;;;19.36;60.28;97228.41;5041441;28;20220;-69
2022/06/14 05:42:09;;;;;;;113.13;107.18;;;;;;;18.32;64.26;97226.41;5073848;28;20195;-69
2022/06/14 05:44:41;;;;;;;338.38;319.77;;;;;;;18.68;61.51;97224.56;5072344;28;20192;-69
2022/06/14 05:47:14;;;;;;;305.85;289.40;;;;;;;18.61;63.15;97229.38;5073950;28;20264;-69
2022/06/14 05:49:48;;;;;;;236.35;223.63;;;;;;;19.31;58.98;97224.97;5073999;28;20174;-69
2022/06/14 05:52:20;;;;;;;194.68;184.20;;;;;;;19.92;57.50;97223.63;5073970;28;20200;-69
2022/06/14 05:55:05;;;;;;;175.00;165.40;;;;;;;20.11;56.94;97221.13;5074123;28;20264;-69
2022/06/14 05:57:49;;;;;;;98.22;92.72;;;;;;;19.73;56.92;97221.88;5074112;28;20186;-69
2022/06/14 06:00:21;;;;;;;163.98;155.38;;;;;;;20.20;53.70;97230.13;5073838;28;20182;-69
2022/06/14 06:03:08;;;;;;;168.65;159.80;;;;;;;19.71;54.59;97227.47;5073005;28;20189;-69
2022/06/14 06:05:42;;;;;;;190.23;180.05;;;;;;;19.19;55.37;97227.91;5073791;28;20288;-69
2022/06/14 06:08:39;;;;;;;163.40;154.90;;;;;;;19.15;56.71;97226.06;5072698;28;20177;-70
2022/06/14 06:11:17;;;;;;;167.70;158.90;;;;;;;19.95;53.64;97224.94;5059298;28;20232;-69
2022/06/14 06:13:52;;;;;;;145.32;137.70;;;;;;;18.32;56.43;97230.91;5073876;28;20262;-69
2022/06/14 06:19:32;;;;;;;188.77;179.13;;;;;;;19.22;54.87;97231.91;5073356;28;20177;-69
2022/06/14 06:22:11;;;;;;;213.00;200.75;;;;;;;19.60;54.12;97220.63;5073655;28;20264;-70
2022/06/14 06:24:48;;;;;;;238.43;225.32;;;;;;;19.75;53.95;97220.53;5054728;28;20541;-70
2022/06/14 06:27:14;;;;;;;252.52;238.65;;;;;;;19.00;56.01;97227.69;5072106;28;20215;-69
2022/06/14 06:29:50;;;;;;;244.50;231.30;;;;;;;18.78;57.51;97224.53;5071618;28;20642;-69
2022/06/14 06:32:18;;;;;;;260.25;246.85;;;;;;;19.79;54.16;97223.44;5072465;28;20291;-69
2022/06/14 06:34:44;;;;;;;226.07;214.30;;;;;;;20.39;52.94;97218.84;5072356;28;20197;-70
2022/06/14 06:37:18;;;;;;;148.23;140.50;;;;;;;20.02;53.75;97229.97;5072136;28;20181;-70
2022/06/14 06:39:53;;;;;;;194.13;183.93;;;;;;;20.44;52.30;97226.78;5072453;28;20220;-69
2022/06/14 06:42:21;;;;;;;267.05;252.68;;;;;;;20.79;51.51;97217.69;5072261;28;20180;-69
2022/06/14 06:45:17;;;;;;;397.65;374.50;;;;;;;21.05;51.03;97225.16;5052743;28;20192;-72
2022/06/14 06:47:58;;;;;;;519.42;489.40;;;;;;;21.12;49.94;97219.50;5072333;28;20203;-70
2022/06/14 06:50:29;;;;;;;449.30;425.73;;;;;;;21.18;48.84;97222.94;5070293;28;20184;-71
2022/06/14 06:53:06;;;;;;;489.45;463.35;;;;;;;20.70;50.58;97228.16;5072033;28;20208;-70
2022/06/14 06:55:39;;;;;;;448.58;424.83;;;;;;;20.81;50.13;97221.66;5072999;28;20571;-70
2022/06/14 06:58:12;;;;;;;440.35;417.25;;;;;;;20.56;50.93;97227.22;5072532;28;20572;-70
2022/06/14 07:00:40;;;;;;;446.42;422.55;;;;;;;21.14;50.49;97217.31;5069443;28;20197;-69
2022/06/14 07:03:38;;;;;;;487.63;461.50;;;;;;;21.10;50.79;97210.97;5054118;28;20611;-70
2022/06/14 07:06:06;;;;;;;497.98;468.60;;;;;;;20.82;52.18;97214.47;5060810;28;20193;-70
2022/06/14 07:09:01;;;;;;;500.80;472.13;;;;;;;20.62;51.02;97218.88;5071131;28;20189;-70
2022/06/14 07:11:34;;;;;;;581.50;546.63;;;;;;;19.74;53.57;97210.97;5067840;28;20213;-70
2022/06/14 07:14:06;;;;;;;401.98;379.15;;;;;;;19.60;53.47;97215.31;5072211;28;20186;-69
2022/06/14 07:16:37;;;;;;;345.55;326.77;;;;;;;19.53;53.57;97217.47;5071800;28;20253;-69
2022/06/14 07:19:22;;;;;;;375.98;355.05;;;;;;;20.10;53.29;97216.09;5071900;28;20177;-70
2022/06/14 07:22:07;;;;;;;381.23;359.70;;;;;;;19.48;54.69;97217.47;5072055;28;20220;-69
2022/06/14 07:24:41;;;;;;;292.95;276.63;;;;;;;19.75;52.85;97215.22;5072008;28;20177;-70
2022/06/14 07:27:14;;;;;;;404.75;381.90;;;;;;;19.79;54.04;97215.47;5070786;28;20181;-70
2022/06/14 07:29:51;;;;;;;380.45;359.45;;;;;;;20.34;52.45;97220.44;5062956;28;20306;-70
2022/06/14 07:32:25;;;;;;;255.20;241.18;;;;;;;20.59;52.69;97216.78;5071478;28;20205;-70
2022/06/14 07:34:51;;;;;;;382.77;360.85;;;;;;;20.20;51.06;97221.31;5056493;28;20181;-69
2022/06/14 07:37:33;;;;;;;315.33;297.27;;;;;;;20.23;52.74;97228.75;5074906;28;20267;-70
2022/06/14 07:40:07;;;;;;;351.92;331.63;;;;;;;20.38;51.15;97226.03;5063705;28;20664;-69
2022/06/14 07:43:01;;;;;;;418.75;394.25;;;;;;;20.69;50.19;97231.88;5073211;28;20756;-70
2022/06/14 07:45:34;;;;;;;353.20;333.13;;;;;;;19.95;51.38;97224.94;5059478;28;20255;-69
2022/06/14 07:48:05;;;;;;;624.58;585.05;;;;;;;19.80;52.83;97206.41;5075742;28;20208;-69
2022/06/14 07:50:46;;;;;;;702.10;654.17;;;;;;;19.81;53.08;97223.97;5075707;28;20193;-69
2022/06/14 07:53:18;;;;;;;635.22;593.38;;;;;;;19.94;51.69;97215.38;5075735;28;20201;-70
2022/06/14 07:56:08;;;;;;;769.25;715.22;;;;;;;20.11;52.00;97215.81;5075689;28;20177;-69
2022/06/14 07:58:51;;;;;;;606.10;567.45;;;;;;;20.20;52.98;97214.13;5075113;28;20185;-69
2022/06/14 08:01:22;;;;;;;458.45;429.63;;;;;;;20.00;50.49;97216.94;5055984;28;20209;-71
2022/06/14 08:03:55;;;;;;;462.92;435.23;;;;;;;19.74;51.79;97218.94;5070162;28;20189;-69
2022/06/14 08:06:28;;;;;;;411.52;388.10;;;;;;;20.55;50.15;97212.31;5075110;28;20212;-69
2022/06/14 08:09:05;;;;;;;542.85;511.10;;;;;;;20.67;49.06;97212.75;5075631;28;20204;-69
2022/06/14 08:12:02;;;;;;;377.30;356.70;;;;;;;20.06;49.14;97215.06;5075465;28;20193;-69
2022/06/14 08:14:47;;;;;;;349.15;330.27;;;;;;;20.36;48.57;97214.84;5074570;28;20538;-69
2022/06/14 08:17:18;;;;;;;561.03;529.17;;;;;;;20.87;49.12;97217.06;5075420;28;20162;-69
2022/06/14 08:19:59;;;;;;;559.50;526.42;;;;;;;20.63;50.21;97217.00;5075688;28;20165;-69
2022/06/14 08:22:34;;;;;;;450.02;424.92;;;;;;;21.05;48.70;97211.81;5075444;28;20624;-69
2022/06/14 08:25:06;;;;;;;335.20;317.20;;;;;;;21.03;49.09;97218.50;5075203;28;20173;-69
2022/06/14 08:27:38;;;;;;;416.65;394.25;;;;;;;20.93;50.08;97218.63;5075428;28;20166;-69
2022/06/14 08:30:08;;;;;;;390.10;368.77;;;;;;;20.92;48.77;97220.47;5075082;28;20166;-69
2022/06/14 08:32:55;;;;;;;408.67;385.85;;;;;;;20.98;48.26;97224.69;5074977;28;20243;-69
2022/06/14 08:35:48;;;;;;;370.73;350.60;;;;;;;20.93;49.01;97230.06;5075270;28;20230;-69
2022/06/14 08:38:36;;;;;;;327.70;309.98;;;;;;;20.47;50.14;97215.56;5074823;28;20229;-69
2022/06/14 08:41:19;;;;;;;409.55;386.40;;;;;;;20.17;49.44;97221.91;5073949;28;20185;-69
2022/06/14 08:43:49;;;;;;;426.90;402.60;;;;;;;21.36;48.17;97219.50;5072590;28;20185;-69
2022/06/14 08:46:29;;;;;;;351.27;332.27;;;;;;;21.56;47.83;97211.28;5074469;28;20681;-69
2022/06/14 08:49:16;;;;;;;614.53;576.55;;;;;;;21.58;47.71;97209.88;5073457;28;20264;-69
2022/06/14 08:52:04;;;;;;;642.53;604.00;;;;;;;21.13;47.43;97211.19;5074502;28;20306;-69
2022/06/14 08:54:35;;;;;;;546.10;513.53;;;;;;;21.60;47.41;97200.81;5074540;28;20181;-69
2022/06/14 08:57:15;;;;;;;430.65;406.23;;;;;;;22.10;47.60;97200.13;5074952;28;20188;-69
2022/06/14 08:59:56;;;;;;;458.73;432.73;;;;;;;21.97;48.34;97203.53;5074568;28;20222;-69
2022/06/14 09:02:35;;;;;;;690.83;648.00;;;;;;;21.37;47.14;97192.56;5072522;28;20201;-69
2022/06/14 09:05:30;;;;;;;736.72;690.63;;;;;;;22.18;46.08;97196.03;5074032;28;20181;-69
2022/06/14 09:08:33;;;;;;;773.70;725.92;;;;;;;21.90;46.22;97190.50;5074327;28;20217;-69
2022/06/14 09:11:20;;;;;;;1460.68;999.90;;;;;;;21.65;47.67;97182.84;5074384;28;20204;-70
2022/06/14 09:14:06;;;;;;;830.45;774.40;;;;;;;21.96;45.71;97186.72;5074215;28;20272;-69
2022/06/14 09:16:40;;;;;;;803.20;750.35;;;;;;;21.76;47.80;97181.63;5074335;28;20227;-70
2022/06/14 09:19:33;;;;;;;807.72;755.30;;;;;;;21.44;47.04;97179.66;5073879;28;20191;-69
2022/06/14 09:22:10;;;;;;;804.42;750.72;;;;;;;21.98;46.88;97183.75;5074233;28;20251;-70
2022/06/14 09:24:52;;;;;;;806.00;752.45;;;;;;;21.75;45.88;97166.72;5073924;28;20189;-69
2022/06/14 09:27:43;;;;;;;721.88;674.58;;;;;;;21.73;45.37;97168.88;5073087;28;20176;-70
2022/06/14 09:30:26;;;;;;;726.88;682.70;;;;;;;21.68;46.12;97165.50;5073631;28;20181;-69
2022/06/14 09:33:36;;;;;;;384.10;363.55;;;;;;;21.62;44.18;97170.09;5073740;28;20247;-70
2022/06/14 09:36:16;;;;;;;593.05;559.58;;;;;;;22.02;40.93;97160.72;5073528;28;20189;-70
2022/06/14 09:39:12;;;;;;;553.83;525.28;;;;;;;21.37;40.70;97160.56;5070993;28;20236;-69
2022/06/14 09:42:09;;;;;;;158.95;151.02;;;;;;;21.54;40.64;97154.72;5071015;28;20194;-68
2022/06/14 09:45:06;;;;;;;612.55;577.42;;;;;;;22.53;39.39;97166.03;5055816;28;20197;-69
2022/06/14 09:47:55;;;;;;;389.00;369.50;;;;;;;22.76;38.77;97159.78;5067339;28;20201;-70
2022/06/14 09:50:55;;;;;;;608.03;572.45;;;;;;;22.61;40.48;97157.38;5073412;28;20178;-70
2022/06/14 09:53:21;;;;;;;736.58;692.42;;;;;;;22.82;40.62;97162.38;5063746;28;20208;-71
2022/06/14 09:55:51;;;;;;;568.67;535.40;;;;;;;22.88;39.56;97155.84;5073541;28;20182;-70
2022/06/14 09:59:00;;;;;;;469.25;443.38;;;;;;;22.68;40.30;97155.06;5062446;28;20306;-70
2022/06/14 10:01:39;;;;;;;618.85;581.75;;;;;;;22.86;40.68;97152.66;5063538;28;20524;-71
2022/06/14 10:04:24;;;;;;;459.20;433.25;;;;;;;22.46;41.24;97154.94;5073385;28;20499;-70
2022/06/14 10:07:20;;;;;;;496.45;469.80;;;;;;;22.80;40.15;97147.41;5072787;28;20189;-70
2022/06/14 10:09:55;;;;;;;417.75;394.45;;;;;;;22.43;41.38;97144.84;5073231;28;20616;-71
2022/06/14 10:12:41;;;;;;;513.53;483.08;;;;;;;22.62;41.22;97136.78;5073796;28;20193;-69
2022/06/14 10:15:27;;;;;;;501.45;473.48;;;;;;;22.91;40.43;97136.50;5073461;28;20318;-70
2022/06/14 10:18:12;;;;;;;430.08;406.27;;;;;;;22.84;41.47;97138.81;5073399;28;20274;-70
2022/06/14 10:20:47;;;;;;;498.80;472.08;;;;;;;22.67;40.63;97140.16;5073369;28;20510;-70
2022/06/14 10:23:46;;;;;;;255.38;242.88;;;;;;;22.71;39.30;97135.81;5073086;28;20177;-70
2022/06/14 10:29:19;;;;;;;250.93;238.32;;;;;;;22.14;39.06;97137.03;5058444;28;20176;-70
2022/06/14 10:32:06;;;;;;;182.15;173.13;;;;;;;22.79;39.34;97127.09;5073359;28;20212;-69
2022/06/14 10:34:56;;;;;;;247.27;235.38;;;;;;;22.90;38.12;97125.06;5072791;28;20810;-70
2022/06/14 10:37:56;;;;;;;227.98;216.43;;;;;;;22.57;41.45;97123.50;5073559;28;20675;-70
2022/06/14 10:40:27;;;;;;;336.48;318.15;;;;;;;22.08;41.79;97122.19;5073480;28;20235;-70
2022/06/14 10:43:02;;;;;;;320.20;301.33;;;;;;;22.45;42.60;97126.66;5069826;28;20182;-69
2022/06/14 10:45:37;;;;;;;406.00;382.38;;;;;;;22.59;42.07;97119.44;5064044;28;20188;-70
2022/06/14 10:48:33;;;;;;;306.02;290.27;;;;;;;21.63;41.39;97115.63;5055068;28;20219;-70
2022/06/14 10:51:10;;;;;;;336.15;319.00;;;;;;;22.29;41.36;97114.66;5072574;28;20182;-70
2022/06/14 10:53:56;;;;;;;303.98;288.60;;;;;;;22.47;40.88;97119.13;5072734;28;20215;-70
2022/06/14 10:56:22;;;;;;;182.73;173.25;;;;;;;22.11;40.95;97123.50;5072907;28;20196;-70
2022/06/14 10:59:23;;;;;;;190.23;180.75;;;;;;;22.15;41.31;97111.13;5071663;28;20182;-71
2022/06/14 11:02:17;;;;;;;218.38;207.90;;;;;;;22.01;42.32;97105.78;5025444;28;20266;-70
2022/06/14 11:05:00;;;;;;;292.05;277.67;;;;;;;21.81;42.09;97109.50;5068649;28;20177;-70
2022/06/14 11:07:42;;;;;;;285.83;271.25;;;;;;;22.09;41.53;97121.09;5072772;28;20279;-71
2022/06/14 11:10:37;;;;;;;305.27;289.83;;;;;;;22.59;40.79;97116.78;5071563;28;20213;-69
2022/06/14 11:13:27;;;;;;;253.85;241.15;;;;;;;22.67;40.41;97113.44;5072158;28;20300;-71
2022/06/14 11:16:01;;;;;;;223.98;213.13;;;;;;;21.85;41.18;97104.38;5072693;28;20178;-70
2022/06/14 11:18:52;;;;;;;184.52;175.68;;;;;;;22.36;40.77;97101.69;5072763;28;20200;-71
2022/06/14 11:21:36;;;;;;;173.15;164.55;;;;;;;22.86;36.88;97091.97;5072765;28;20174;-72
2022/06/14 11:24:16;;;;;;;151.45;143.52;;;;;;;23.19;37.03;97097.97;5072763;28;20257;-70
2022/06/14 11:26:52;;;;;;;123.35;117.28;;;;;;;23.29;36.30;97094.31;5072213;28;20169;-72
2022/06/14 11:30:02;;;;;;;130.05;123.38;;;;;;;23.48;36.43;97092.31;5071273;28;20177;-72
2022/06/14 11:33:11;;;;;;;179.68;170.82;;;;;;;23.56;35.63;97081.69;5067262;28;20282;-70
2022/06/14 11:35:58;;;;;;;119.10;113.18;;;;;;;23.42;37.33;97093.47;4952105;29;20296;-71
2022/06/14 11:38:42;;;;;;;124.15;117.82;;;;;;;23.56;37.20;97081.69;5051325;28;20237;-71
2022/06/14 11:41:10;;;;;;;126.22;119.97;;;;;;;23.09;37.80;97084.81;5057176;28;20204;-72
2022/06/14 11:43:56;;;;;;;207.07;197.05;;;;;;;23.18;37.44;97083.03;5071345;28;20359;-70
2022/06/14 11:46:44;;;;;;;99.78;94.60;;;;;;;23.37;37.98;97080.22;5062069;28;20188;-71
2022/06/14 11:49:17;;;;;;;175.10;166.55;;;;;;;23.18;37.43;97086.47;5071865;28;20587;-71
2022/06/14 11:52:01;;;;;;;197.43;187.75;;;;;;;23.63;36.93;97084.72;5068658;28;20717;-71
2022/06/14 11:55:12;;;;;;;294.98;281.08;;;;;;;23.32;36.09;97085.69;5071857;28;20177;-71
2022/06/14 11:58:16;;;;;;;182.10;173.38;;;;;;;22.92;37.21;97084.63;5065098;28;20664;-72
2022/06/14 12:01:09;;;;;;;301.20;286.25;;;;;;;22.77;37.57;97073.16;5064509;28;20181;-70
2022/06/14 12:04:07;;;;;;;195.40;186.05;;;;;;;22.65;38.58;97080.84;5071161;28;20646;-71
2022/06/14 12:06:45;;;;;;;151.88;144.55;;;;;;;22.62;38.54;97069.97;5071163;28;20193;-71
2022/06/14 12:09:44;;;;;;;77.18;73.18;;;;;;;22.70;37.58;97075.41;5071440;28;20535;-70
2022/06/14 12:12:37;;;;;;;270.92;257.98;;;;;;;22.55;37.55;97072.25;5071484;28;20276;-71